createdAt,value
2022-12-24T00:01:04.805Z,18.30
2022-12-24T00:03:32.184Z,18.52
2022-12-24T00:06:03.945Z,16.87
2022-12-24T00:08:30.810Z,17.08
2022-12-24T00:10:57.789Z,17.43
2022-12-24T00:13:24.645Z,16.52
2022-12-24T00:15:51.724Z,16.87
2022-12-24T00:18:18.669Z,16.87
2022-12-24T00:20:48.462Z,17.27
2022-12-24T00:23:16.495Z,18.40
2022-12-24T00:25:43.599Z,19.15
2022-12-24T00:28:10.988Z,16.10
2022-12-24T00:30:39.526Z,16.45
2022-12-24T00:33:06.861Z,16.37
2022-12-24T00:35:35.156Z,16.33
2022-12-24T00:38:03.939Z,16.52
2022-12-24T00:40:31.803Z,16.58
2022-12-24T00:42:59.008Z,16.05
2022-12-24T00:45:27.970Z,15.77
2022-12-24T00:47:55.283Z,16.33
2022-12-24T00:50:22.896Z,16.35
2022-12-24T00:52:49.875Z,17.55
2022-12-24T00:55:16.723Z,16.25
2022-12-24T00:57:43.624Z,19.17
2022-12-24T01:00:18.029Z,19.40
2022-12-24T01:02:45.326Z,19.45
2022-12-24T01:05:13.045Z,18.27
2022-12-24T01:07:44.605Z,18.23
2022-12-24T01:10:15.385Z,20.20
2022-12-24T01:12:43.364Z,21.13
2022-12-24T01:15:12.040Z,23.02
2022-12-24T01:17:39.302Z,20.73
2022-12-24T01:20:11.519Z,19.17
2022-12-24T01:22:38.313Z,18.25
2022-12-24T01:25:05.767Z,17.23
2022-12-24T01:27:33.313Z,17.17
2022-12-24T01:30:02.019Z,16.48
2022-12-24T01:32:29.284Z,16.10
2022-12-24T01:34:56.198Z,15.48
2022-12-24T01:37:23.309Z,16.00
2022-12-24T01:39:51.728Z,14.63
2022-12-24T01:42:42.382Z,15.20
2022-12-24T01:45:48.133Z,14.40
2022-12-24T01:48:19.074Z,14.60
2022-12-24T01:50:46.725Z,15.13
2022-12-24T01:53:14.649Z,14.02
2022-12-24T01:55:42.432Z,15.27
2022-12-24T01:58:11.012Z,15.32
2022-12-24T02:00:38.591Z,16.20
2022-12-24T02:03:05.780Z,14.57
2022-12-24T02:05:42.602Z,14.45
2022-12-24T02:08:11.225Z,14.82
2022-12-24T02:10:38.327Z,16.02
2022-12-24T02:13:06.280Z,15.20
2022-12-24T02:16:03.913Z,14.60
2022-12-24T02:18:47.818Z,14.40
2022-12-24T02:21:33.189Z,15.82
2022-12-24T02:24:31.175Z,15.15
2022-12-24T02:26:58.055Z,15.98
2022-12-24T02:29:46.194Z,16.03
2022-12-24T02:32:53.585Z,15.52
2022-12-24T02:35:30.577Z,17.20
2022-12-24T02:38:21.036Z,16.90
2022-12-24T02:40:57.657Z,15.98
2022-12-24T02:43:32.810Z,16.63
2022-12-24T02:46:04.564Z,16.80
2022-12-24T02:48:33.140Z,19.05
2022-12-24T02:51:07.095Z,21.00
2022-12-24T02:53:35.217Z,18.50
2022-12-24T02:56:11.272Z,19.53
2022-12-24T02:59:01.262Z,19.42
2022-12-24T03:01:55.036Z,17.48
2022-12-24T03:04:46.981Z,18.80
2022-12-24T03:07:27.208Z,18.75
2022-12-24T03:10:12.763Z,18.23
2022-12-24T03:12:44.242Z,21.87
2022-12-24T03:15:14.773Z,19.25
2022-12-24T03:17:45.757Z,20.70
2022-12-24T03:20:18.895Z,21.48
2022-12-24T03:22:45.788Z,20.57
2022-12-24T03:25:12.667Z,22.42
2022-12-24T03:27:40.552Z,22.13
2022-12-24T03:30:13.076Z,20.85
2022-12-24T03:32:42.775Z,22.33
2022-12-24T03:35:10.411Z,21.67
2022-12-24T03:37:37.883Z,20.90
2022-12-24T03:40:06.695Z,22.13
2022-12-24T03:42:34.255Z,22.05
2022-12-24T03:45:01.157Z,21.50
2022-12-24T03:47:28.029Z,23.83
2022-12-24T03:49:55.457Z,22.25
2022-12-24T03:52:22.309Z,21.58
2022-12-24T03:54:49.188Z,23.98
2022-12-24T03:57:16.033Z,22.55
2022-12-24T03:59:43.059Z,22.70
2022-12-24T04:02:10.348Z,20.67
2022-12-24T04:04:37.855Z,20.98
2022-12-24T04:07:05.807Z,20.45
2022-12-24T04:09:36.368Z,19.58
2022-12-24T04:12:03.379Z,19.43
2022-12-24T04:14:30.262Z,17.73
2022-12-24T04:16:57.195Z,16.60
2022-12-24T04:19:24.119Z,17.58
2022-12-24T04:21:51.020Z,17.83
2022-12-24T04:24:17.898Z,17.83
2022-12-24T04:26:44.788Z,16.87
2022-12-24T04:29:11.831Z,17.52
2022-12-24T04:31:38.922Z,17.50
2022-12-24T04:34:05.835Z,17.80
2022-12-24T04:36:32.737Z,17.93
2022-12-24T04:38:59.866Z,16.98
2022-12-24T04:41:26.749Z,18.08
2022-12-24T04:43:55.165Z,30.20
2022-12-24T04:46:25.053Z,21.30
2022-12-24T04:48:54.271Z,18.33
2022-12-24T04:51:21.917Z,20.08
2022-12-24T04:53:48.921Z,18.40
2022-12-24T04:56:22.567Z,18.48
2022-12-24T04:58:50.269Z,17.80
2022-12-24T05:01:26.813Z,18.10
2022-12-24T05:03:54.947Z,17.90
2022-12-24T05:06:25.601Z,19.35
2022-12-24T05:08:57.611Z,31.27
2022-12-24T05:11:25.147Z,30.10
2022-12-24T05:13:52.110Z,27.47
2022-12-24T05:16:20.572Z,22.75
2022-12-24T05:18:47.582Z,22.65
2022-12-24T05:21:20.691Z,20.50
2022-12-24T05:24:06.613Z,21.58
2022-12-24T05:26:49.594Z,28.67
2022-12-24T05:29:16.788Z,34.42
2022-12-24T05:31:45.262Z,41.45
2022-12-24T05:34:13.959Z,38.88
2022-12-24T05:36:41.032Z,38.75
2022-12-24T05:39:13.492Z,35.07
2022-12-24T05:41:42.930Z,33.38
2022-12-24T05:44:09.879Z,35.72
2022-12-24T05:46:36.825Z,42.25
2022-12-24T05:49:03.841Z,27.65
2022-12-24T05:51:30.810Z,29.03
2022-12-24T05:53:57.753Z,31.95
2022-12-24T05:56:25.431Z,22.42
2022-12-24T05:58:53.899Z,21.23
2022-12-24T06:01:22.878Z,18.42
2022-12-24T06:03:50.319Z,25.93
2022-12-24T06:06:23.410Z,25.88
2022-12-24T06:08:52.726Z,34.38
2022-12-24T06:11:24.107Z,35.80
2022-12-24T06:13:52.564Z,32.72
2022-12-24T06:16:21.453Z,32.30
2022-12-24T06:18:48.595Z,28.95
2022-12-24T06:21:16.257Z,26.25
2022-12-24T06:23:44.822Z,25.15
2022-12-24T06:26:14.178Z,22.30
2022-12-24T06:28:41.431Z,21.67
2022-12-24T06:31:12.474Z,22.10
2022-12-24T06:33:39.771Z,21.75
2022-12-24T06:36:13.339Z,21.05
2022-12-24T06:38:43.844Z,25.33
2022-12-24T06:41:10.773Z,20.67
2022-12-24T06:43:37.780Z,22.15
2022-12-24T06:46:05.403Z,18.90
2022-12-24T06:48:32.394Z,25.02
2022-12-24T06:51:02.587Z,21.42
2022-12-24T06:53:29.828Z,23.97
2022-12-24T06:56:03.420Z,24.77
2022-12-24T06:58:30.656Z,25.48
2022-12-24T07:00:57.617Z,23.02
2022-12-24T07:03:24.813Z,21.27
2022-12-24T07:05:52.024Z,22.87
2022-12-24T07:08:18.940Z,19.55
2022-12-24T07:10:54.087Z,20.95
2022-12-24T07:13:21.609Z,24.83
2022-12-24T07:15:57.505Z,22.27
2022-12-24T07:18:24.617Z,29.20
2022-12-24T07:20:51.860Z,27.80
2022-12-24T07:23:18.948Z,27.55
2022-12-24T07:25:45.980Z,23.87
2022-12-24T07:28:12.950Z,25.20
2022-12-24T07:30:39.957Z,22.50
2022-12-24T07:33:06.997Z,25.12
2022-12-24T07:35:34.248Z,27.98
2022-12-24T07:38:02.766Z,27.37
2022-12-24T07:40:29.826Z,26.70
2022-12-24T07:42:56.779Z,25.47
2022-12-24T07:45:23.731Z,26.80
2022-12-24T07:47:50.956Z,26.73
2022-12-24T07:50:18.450Z,26.52
2022-12-24T07:52:45.361Z,26.15
2022-12-24T07:55:12.477Z,28.43
2022-12-24T07:57:40.076Z,29.27
2022-12-24T08:00:08.191Z,31.00
2022-12-24T08:02:36.858Z,31.27
2022-12-24T08:05:04.230Z,32.17
2022-12-24T08:07:31.118Z,38.50
2022-12-24T08:09:58.766Z,33.35
2022-12-24T08:12:25.851Z,38.67
2022-12-24T08:14:52.675Z,33.05
2022-12-24T08:17:19.597Z,27.65
2022-12-24T08:19:49.893Z,30.43
2022-12-24T08:22:16.806Z,27.87
2022-12-24T08:24:43.692Z,29.75
2022-12-24T08:27:10.585Z,30.20
2022-12-24T08:29:43.741Z,27.58
2022-12-24T08:32:10.693Z,26.33
2022-12-24T08:34:37.651Z,24.85
2022-12-24T08:37:04.661Z,24.73
2022-12-24T08:39:31.786Z,18.92
2022-12-24T08:41:58.776Z,18.50
2022-12-24T08:44:25.847Z,17.17
2022-12-24T08:46:52.659Z,22.55
2022-12-24T08:49:19.688Z,19.40
2022-12-24T08:51:46.703Z,17.92
2022-12-24T08:54:13.815Z,20.70
2022-12-24T08:56:40.681Z,21.27
2022-12-24T08:59:07.780Z,12.20
2022-12-24T09:01:34.938Z,16.80
2022-12-24T09:04:02.664Z,17.17
2022-12-24T09:06:29.826Z,15.13
2022-12-24T09:08:57.685Z,13.50
2022-12-24T09:11:25.189Z,12.50
2022-12-24T09:13:52.056Z,14.23
2022-12-24T09:16:19.018Z,13.48
2022-12-24T09:18:46.420Z,13.05
2022-12-24T09:21:15.753Z,14.17
2022-12-24T09:23:44.723Z,12.02
2022-12-24T09:26:17.776Z,8.02
2022-12-24T09:28:45.199Z,4.95
2022-12-24T09:31:13.605Z,5.28
2022-12-24T09:33:42.304Z,9.70
2022-12-24T09:36:29.138Z,6.80
2022-12-24T09:38:56.131Z,8.63
2022-12-24T09:41:22.980Z,8.27
2022-12-24T09:44:00.214Z,7.53
2022-12-24T09:46:33.178Z,6.17
2022-12-24T09:49:10.350Z,5.82
2022-12-24T09:51:51.540Z,4.90
2022-12-24T09:54:25.855Z,5.62
2022-12-24T09:56:56.701Z,4.45
2022-12-24T09:59:32.235Z,4.47
2022-12-24T10:02:00.698Z,4.15
2022-12-24T10:04:31.307Z,4.35
2022-12-24T10:07:23.540Z,4.28
2022-12-24T10:09:53.512Z,4.20
2022-12-24T10:12:33.250Z,3.83
2022-12-24T10:15:09.138Z,4.50
2022-12-24T10:17:57.687Z,4.43
2022-12-24T10:20:39.148Z,5.10
2022-12-24T10:23:44.676Z,6.32
2022-12-24T10:26:29.321Z,3.33
2022-12-24T10:29:20.436Z,1.10
2022-12-24T10:31:55.144Z,1.00
2022-12-24T10:34:24.941Z,1.00
2022-12-24T10:36:52.100Z,0.80
2022-12-24T10:39:21.735Z,0.60
2022-12-24T10:41:51.371Z,0.75
2022-12-24T10:44:22.440Z,0.70
2022-12-24T10:46:49.324Z,0.90
2022-12-24T10:49:24.166Z,0.82
2022-12-24T10:51:56.153Z,0.70
2022-12-24T10:54:27.852Z,0.50
2022-12-24T10:57:00.744Z,0.60
2022-12-24T10:59:39.796Z,0.80
2022-12-24T11:02:25.549Z,0.95
2022-12-24T11:04:53.266Z,1.70
2022-12-24T11:07:23.114Z,1.00
2022-12-24T11:10:02.017Z,0.68
2022-12-24T11:12:37.226Z,0.80
2022-12-24T11:15:19.136Z,1.02
2022-12-24T11:17:58.898Z,1.60
2022-12-24T11:20:30.444Z,0.90
2022-12-24T11:22:58.210Z,0.95
2022-12-24T11:25:31.834Z,0.32
2022-12-24T11:28:18.522Z,0.40
2022-12-24T11:30:56.396Z,0.40
2022-12-24T11:33:23.824Z,0.50
2022-12-24T11:36:03.000Z,0.30
2022-12-24T11:38:32.106Z,0.40
2022-12-24T11:41:05.946Z,0.60
2022-12-24T11:43:44.708Z,0.50
2022-12-24T11:46:16.488Z,0.60
2022-12-24T11:48:43.759Z,0.68
2022-12-24T11:51:48.709Z,0.50
2022-12-24T11:54:29.875Z,0.60
2022-12-24T11:57:01.665Z,1.53
2022-12-24T11:59:47.450Z,0.50
2022-12-24T12:02:37.884Z,0.40
2022-12-24T12:05:11.619Z,0.50
2022-12-24T12:07:39.373Z,0.50
2022-12-24T12:10:15.690Z,0.50
2022-12-24T12:12:46.532Z,0.40
2022-12-24T12:15:16.077Z,0.47
2022-12-24T12:17:55.081Z,0.60
2022-12-24T12:20:51.148Z,0.30
2022-12-24T12:23:28.426Z,0.43
2022-12-24T12:25:57.411Z,0.30
2022-12-24T12:28:39.638Z,0.80
2022-12-24T12:31:15.872Z,0.47
2022-12-24T12:33:55.911Z,0.50
2022-12-24T12:36:32.622Z,0.53
2022-12-24T12:39:00.121Z,2.10
2022-12-24T12:41:48.129Z,0.77
2022-12-24T12:44:38.506Z,0.47
2022-12-24T12:47:30.074Z,0.47
2022-12-24T12:50:09.578Z,1.03
2022-12-24T12:53:03.282Z,0.50
2022-12-24T12:55:33.594Z,0.43
2022-12-24T12:58:03.904Z,0.55
2022-12-24T13:00:37.271Z,0.50
2022-12-24T13:03:35.370Z,0.97
2022-12-24T13:06:23.848Z,0.50
2022-12-24T13:09:15.824Z,0.50
2022-12-24T13:12:02.277Z,0.60
2022-12-24T13:14:55.332Z,0.50
2022-12-24T13:18:06.821Z,1.40
2022-12-24T13:20:38.001Z,0.57
2022-12-24T13:23:20.276Z,0.60
2022-12-24T13:25:50.645Z,0.60
2022-12-24T13:28:33.207Z,0.50
2022-12-24T13:31:02.971Z,0.90
2022-12-24T13:33:38.825Z,0.60
2022-12-24T13:36:14.329Z,0.50
2022-12-24T13:38:54.690Z,0.55
2022-12-24T13:41:38.723Z,0.82
2022-12-24T13:44:06.639Z,1.10
2022-12-24T13:46:49.768Z,0.70
2022-12-24T13:49:30.425Z,0.35
2022-12-24T13:52:12.611Z,0.50
2022-12-24T13:54:43.169Z,1.92
2022-12-24T13:57:29.376Z,1.00
2022-12-24T14:00:01.196Z,0.70
2022-12-24T14:02:33.303Z,0.88
2022-12-24T14:05:05.214Z,0.60
2022-12-24T14:07:33.746Z,1.00
2022-12-24T14:10:01.122Z,1.07
2022-12-24T14:12:45.530Z,0.75
2022-12-24T14:15:49.767Z,0.93
2022-12-24T14:18:19.558Z,0.62
2022-12-24T14:20:51.973Z,0.80
2022-12-24T14:23:32.633Z,0.90
2022-12-24T14:26:02.676Z,0.85
2022-12-24T14:28:41.718Z,0.90
2022-12-24T14:31:16.389Z,0.80
2022-12-24T14:33:43.641Z,0.90
2022-12-24T14:36:15.039Z,1.30
2022-12-24T14:38:45.286Z,0.73
2022-12-24T14:41:23.722Z,0.80
2022-12-24T14:44:00.569Z,1.00
2022-12-24T14:46:33.825Z,0.95
2022-12-24T14:49:27.886Z,1.20
2022-12-24T14:52:18.412Z,0.80
2022-12-24T14:54:54.437Z,0.70
2022-12-24T14:57:24.520Z,1.05
2022-12-24T14:59:56.605Z,0.88
2022-12-24T15:02:42.552Z,4.67
2022-12-24T15:05:15.469Z,3.95
2022-12-24T15:08:04.106Z,2.08
2022-12-24T15:10:52.270Z,1.70
2022-12-24T15:13:36.738Z,3.85
2022-12-24T15:16:15.766Z,2.23
2022-12-24T15:19:07.963Z,2.22
2022-12-24T15:21:41.463Z,3.00
2022-12-24T15:24:28.301Z,2.03
2022-12-24T15:26:57.236Z,4.28
2022-12-24T15:29:30.072Z,3.30
2022-12-24T15:32:05.247Z,3.40
2022-12-24T15:34:49.814Z,8.75
2022-12-24T15:37:33.936Z,18.30
2022-12-24T15:40:16.072Z,4.25
2022-12-24T15:43:03.969Z,5.30
2022-12-24T15:45:38.028Z,5.90
2022-12-24T15:48:11.404Z,6.15
2022-12-24T15:50:46.928Z,4.90
2022-12-24T15:53:22.517Z,5.43
2022-12-24T15:56:04.454Z,7.97
2022-12-24T15:58:36.831Z,5.43
2022-12-24T16:01:28.269Z,3.00
2022-12-24T16:03:57.972Z,2.22
2022-12-24T16:06:25.051Z,1.10
2022-12-24T16:08:52.095Z,0.80
2022-12-24T16:11:23.661Z,0.60
2022-12-24T16:13:50.517Z,1.02
2022-12-24T16:16:22.650Z,1.23
2022-12-24T16:18:55.338Z,0.62
2022-12-24T16:21:34.186Z,1.00
2022-12-24T16:24:06.519Z,0.70
2022-12-24T16:26:36.312Z,0.70
2022-12-24T16:29:04.366Z,0.95
2022-12-24T16:31:37.421Z,1.62
2022-12-24T16:34:05.181Z,1.63
2022-12-24T16:36:32.962Z,1.40
2022-12-24T16:39:18.635Z,1.05
2022-12-24T16:42:04.227Z,1.58
2022-12-24T16:44:31.110Z,0.80
2022-12-24T16:47:00.413Z,1.10
2022-12-24T16:49:27.845Z,2.37
2022-12-24T16:51:54.799Z,1.30
2022-12-24T16:54:21.838Z,0.80
2022-12-24T16:56:48.864Z,0.60
2022-12-24T16:59:18.416Z,0.77
2022-12-24T17:01:46.241Z,0.60
2022-12-24T17:04:14.534Z,1.00
2022-12-24T17:06:41.793Z,1.20
2022-12-24T17:09:10.242Z,1.15
2022-12-24T17:11:37.535Z,1.40
2022-12-24T17:14:08.452Z,1.45
2022-12-24T17:16:37.684Z,1.52
2022-12-24T17:19:05.047Z,1.15
2022-12-24T17:21:32.510Z,1.02
2022-12-24T17:23:59.428Z,1.30
2022-12-24T17:26:26.853Z,1.27
2022-12-24T17:28:55.449Z,1.30
2022-12-24T17:31:23.529Z,1.60
2022-12-24T17:33:51.789Z,1.62
2022-12-24T17:36:19.145Z,3.10
2022-12-24T17:38:46.107Z,2.80
2022-12-24T17:41:17.201Z,1.90
2022-12-24T17:43:44.535Z,2.30
2022-12-24T17:46:18.036Z,2.37
2022-12-24T17:48:45.326Z,3.80
2022-12-24T17:51:14.503Z,5.37
2022-12-24T17:53:42.773Z,4.82
2022-12-24T17:56:12.453Z,6.12
2022-12-24T17:58:40.499Z,4.68
2022-12-24T18:01:14.744Z,4.73
2022-12-24T18:03:41.994Z,3.12
2022-12-24T18:06:11.213Z,4.32
2022-12-24T18:08:39.187Z,3.97
2022-12-24T18:11:23.169Z,5.40
2022-12-24T18:13:50.710Z,4.70
2022-12-24T18:16:24.008Z,5.15
2022-12-24T18:18:52.545Z,4.30
2022-12-24T18:21:21.792Z,4.25
2022-12-24T18:23:50.490Z,3.50
2022-12-24T18:26:19.980Z,3.73
2022-12-24T18:28:47.636Z,3.80
2022-12-24T18:31:19.249Z,3.15
2022-12-24T18:33:48.304Z,4.35
2022-12-24T18:36:15.224Z,3.85
2022-12-24T18:38:42.671Z,4.53
2022-12-24T18:41:13.027Z,10.88
2022-12-24T18:43:41.345Z,7.37
2022-12-24T18:46:17.487Z,5.65
2022-12-24T18:48:44.683Z,5.60
2022-12-24T18:51:12.110Z,14.53
2022-12-24T18:53:39.522Z,11.32
2022-12-24T18:56:23.221Z,7.40
2022-12-24T18:58:53.888Z,7.35
2022-12-24T19:01:24.220Z,4.93
2022-12-24T19:03:51.731Z,4.80
2022-12-24T19:06:19.783Z,5.87
2022-12-24T19:08:56.976Z,5.15
2022-12-24T19:11:25.809Z,3.60
2022-12-24T19:13:53.166Z,4.95
2022-12-24T19:16:20.929Z,4.83
2022-12-24T19:18:48.046Z,4.43
2022-12-24T19:21:19.442Z,6.60
2022-12-24T19:23:47.398Z,6.20
2022-12-24T19:26:16.074Z,6.25
2022-12-24T19:28:45.264Z,6.97
2022-12-24T19:31:15.601Z,7.57
2022-12-24T19:33:51.727Z,6.28
2022-12-24T19:36:25.210Z,6.60
2022-12-24T19:38:53.393Z,7.03
2022-12-24T19:41:23.505Z,6.10
2022-12-24T19:44:00.533Z,5.28
2022-12-24T19:46:30.634Z,6.60
2022-12-24T19:49:01.090Z,7.90
2022-12-24T19:51:29.557Z,13.32
2022-12-24T19:53:58.006Z,15.33
2022-12-24T19:56:26.581Z,13.30
2022-12-24T19:58:54.750Z,11.95
2022-12-24T20:01:23.550Z,13.15
2022-12-24T20:03:52.274Z,18.20
2022-12-24T20:06:21.274Z,12.70
2022-12-24T20:08:48.748Z,14.48
2022-12-24T20:11:18.768Z,13.68
2022-12-24T20:13:46.683Z,12.40
2022-12-24T20:16:16.160Z,12.40
2022-12-24T20:18:43.261Z,10.97
2022-12-24T20:21:11.941Z,11.82
2022-12-24T20:23:40.651Z,11.90
2022-12-24T20:26:12.053Z,11.02
2022-12-24T20:28:39.768Z,6.60
2022-12-24T20:31:21.463Z,10.07
2022-12-24T20:33:48.541Z,9.23
2022-12-24T20:36:18.309Z,11.25
2022-12-24T20:38:45.819Z,12.88
2022-12-24T20:41:15.051Z,9.27
2022-12-24T20:43:47.995Z,9.57
2022-12-24T20:46:17.241Z,6.80
2022-12-24T20:48:44.625Z,6.78
2022-12-24T20:51:24.657Z,5.97
2022-12-24T20:53:57.805Z,5.45
2022-12-24T20:56:26.020Z,3.80
2022-12-24T20:58:53.027Z,5.60
2022-12-24T21:01:24.542Z,3.97
2022-12-24T21:03:53.600Z,3.03
2022-12-24T21:06:21.040Z,3.20
2022-12-24T21:08:52.396Z,2.63
2022-12-24T21:11:38.745Z,2.00
2022-12-24T21:14:05.909Z,2.20
2022-12-24T21:16:34.770Z,1.73
2022-12-24T21:19:02.053Z,2.10
2022-12-24T21:21:29.057Z,1.97
2022-12-24T21:23:55.970Z,1.40
2022-12-24T21:26:23.195Z,1.70
2022-12-24T21:28:50.655Z,1.70
2022-12-24T21:31:17.996Z,1.70
2022-12-24T21:33:45.820Z,1.77
2022-12-24T21:36:13.802Z,1.30
2022-12-24T21:38:41.505Z,1.50
2022-12-24T21:41:12.012Z,1.73
2022-12-24T21:43:39.371Z,1.90
2022-12-24T21:46:08.460Z,1.70
2022-12-24T21:48:54.689Z,1.98
2022-12-24T21:51:23.363Z,1.40
2022-12-24T21:54:09.008Z,1.37
2022-12-24T21:56:56.362Z,1.20
2022-12-24T21:59:26.803Z,1.80
2022-12-24T22:01:55.723Z,1.10
2022-12-24T22:04:23.679Z,1.23
2022-12-24T22:07:09.684Z,1.12
2022-12-24T22:09:57.558Z,2.42
2022-12-24T22:12:28.604Z,2.30
2022-12-24T22:14:55.492Z,2.33
2022-12-24T22:17:25.562Z,2.35
2022-12-24T22:19:54.504Z,2.53
2022-12-24T22:22:22.447Z,4.03
2022-12-24T22:24:51.036Z,3.50
2022-12-24T22:27:17.954Z,3.50
2022-12-24T22:29:46.802Z,2.55
2022-12-24T22:32:13.692Z,2.17
2022-12-24T22:34:40.647Z,2.00
2022-12-24T22:37:07.550Z,1.80
2022-12-24T22:39:34.531Z,1.40
2022-12-24T22:42:01.456Z,1.92
2022-12-24T22:44:28.850Z,1.58
2022-12-24T22:46:55.768Z,1.27
2022-12-24T22:49:22.683Z,1.20
2022-12-24T22:51:49.991Z,1.40
2022-12-24T22:54:16.922Z,1.70
2022-12-24T22:56:44.134Z,1.50
2022-12-24T22:59:13.914Z,1.50
2022-12-24T23:01:45.320Z,1.80
2022-12-24T23:04:13.726Z,1.60
2022-12-24T23:06:41.060Z,1.67
2022-12-24T23:09:10.835Z,1.75
2022-12-24T23:11:39.137Z,1.75
2022-12-24T23:14:24.956Z,1.73
2022-12-24T23:16:51.852Z,2.00
2022-12-24T23:19:18.932Z,1.83
2022-12-24T23:21:45.801Z,1.80
2022-12-24T23:24:15.636Z,1.62
2022-12-24T23:26:42.541Z,1.60
2022-12-24T23:29:09.477Z,1.52
2022-12-24T23:31:37.708Z,1.90
2022-12-24T23:34:04.940Z,1.75
2022-12-24T23:36:31.886Z,2.83
2022-12-24T23:38:58.917Z,2.03
2022-12-24T23:41:25.929Z,2.08
2022-12-24T23:43:53.019Z,2.53
2022-12-24T23:46:20.985Z,4.28
2022-12-24T23:48:53.846Z,4.20
2022-12-24T23:51:23.782Z,4.90
2022-12-24T23:53:56.137Z,5.40
2022-12-24T23:56:24.399Z,4.20
2022-12-24T23:58:51.916Z,3.50
